Fort Worth NAS, Texas
Current Conditions -  °F | °C
As of 11:53 AM on Monday 26 Jan 2015 (Local Time) from KFTW Reporting Station
Clear Clear  
Wind Chill: 62°   Ceiling: Unl
Heat Index: 62°   Visibility: 10mi
Dew Point: 36°   Wind: 8mph
Humidity: 38%   Direction: 220°SW
Pressure: 30.19"   Gusts: NA
Location:  32.77°N, 97.43°W
Report Text: KFTW 261753Z 22007KT 10SM CLR 17/02 A3019 RMK AO2 SLP221 T01670022 10167 20028 58008
Loading
Personal Weather Stations






























Interactive Weather Map New forecast layout! Learn more

10-Day Weather Forecast

Advertisements
Track Severe Weather on mobile